Time;durP1;ratioP1;P1;durP2;ratioP2;P2;SDS_P1;SDS_P2;PMS_P1;PMS_P2;Temp;Humidity;BMP_temperature;BMP_pressure;BME280_temperature;BME280_humidity;BME280_pressure;Samples;Min_cycle;Max_cycle;Signal;HPM_P1;HPM_P2
2023/06/18 00:01:57;;;;;;;16.13;14.63;;;16.80;99.90;;;;;;5049690;28;20656;-73
2023/06/18 00:04:22;;;;;;;14.80;13.60;;;16.80;99.90;;;;;;5049968;28;20275;-74
2023/06/18 00:06:48;;;;;;;15.90;14.23;;;16.70;99.90;;;;;;5049522;28;20610;-72
2023/06/18 00:09:13;;;;;;;15.87;14.47;;;16.60;99.90;;;;;;5049259;28;20218;-74
2023/06/18 00:11:39;;;;;;;16.80;15.20;;;16.60;99.90;;;;;;5049931;28;20281;-75
2023/06/18 00:14:04;;;;;;;15.23;13.90;;;16.60;99.90;;;;;;5050882;28;20203;-76
2023/06/18 00:16:30;;;;;;;16.83;15.20;;;16.50;99.90;;;;;;5052423;28;20567;-74
2023/06/18 00:18:55;;;;;;;15.27;13.67;;;16.50;99.90;;;;;;5056721;28;20244;-74
2023/06/18 00:21:21;;;;;;;15.37;13.87;;;16.50;99.90;;;;;;5048851;28;20456;-79
2023/06/18 00:23:46;;;;;;;14.67;13.30;;;16.50;99.90;;;;;;5059100;28;20360;-71
2023/06/18 00:26:12;;;;;;;16.30;14.63;;;16.40;99.90;;;;;;5048358;28;20209;-70
2023/06/18 00:28:37;;;;;;;16.10;14.37;;;16.50;99.90;;;;;;5047778;28;21095;-69
2023/06/18 00:31:03;;;;;;;15.43;13.83;;;16.40;99.90;;;;;;5048425;28;20226;-69
2023/06/18 00:33:29;;;;;;;18.73;14.27;;;16.40;99.90;;;;;;5051148;28;20596;-68
2023/06/18 00:35:57;;;;;;;14.13;12.77;;;16.40;99.90;;;;;;5045618;28;20210;-71
2023/06/18 00:38:28;;;;;;;14.63;13.07;;;16.30;99.90;;;;;;5047349;28;20273;-71
2023/06/18 00:40:54;;;;;;;14.37;12.97;;;16.30;99.90;;;;;;5049707;28;20222;-71
2023/06/18 00:43:20;;;;;;;13.87;12.67;;;16.20;99.90;;;;;;5050008;28;20194;-69
2023/06/18 00:45:46;;;;;;;16.37;14.70;;;16.20;99.90;;;;;;5049375;28;20671;-68
2023/06/18 00:48:13;;;;;;;15.87;14.37;;;16.20;99.90;;;;;;5047393;28;20186;-70
2023/06/18 00:50:40;;;;;;;15.67;14.27;;;16.20;99.90;;;;;;5048326;28;20296;-70
2023/06/18 00:53:07;;;;;;;15.27;13.70;;;16.20;99.90;;;;;;5047712;28;20209;-69
2023/06/18 00:55:36;;;;;;;16.37;14.73;;;16.20;99.90;;;;;;5048471;28;20455;-62
2023/06/18 00:58:03;;;;;;;15.17;13.77;;;16.20;99.90;;;;;;5063774;28;20205;-61
2023/06/18 01:00:32;;;;;;;14.73;13.53;;;16.20;99.90;;;;;;5044380;28;20689;-61
2023/06/18 01:03:00;;;;;;;16.67;14.80;;;16.20;99.90;;;;;;5049480;28;20289;-61
2023/06/18 01:05:26;;;;;;;16.67;15.17;;;16.10;99.90;;;;;;5057619;28;20199;-61
2023/06/18 01:07:52;;;;;;;17.70;15.90;;;16.10;99.90;;;;;;5048704;28;20251;-61
2023/06/18 01:10:20;;;;;;;14.93;13.53;;;16.10;99.90;;;;;;5045995;28;20982;-62
2023/06/18 01:12:48;;;;;;;16.37;14.67;;;16.00;99.90;;;;;;5048328;28;20209;-61
2023/06/18 01:15:15;;;;;;;16.20;14.50;;;16.00;99.90;;;;;;5048681;28;20203;-60
2023/06/18 01:17:46;;;;;;;17.03;15.33;;;16.00;99.90;;;;;;5048048;28;20217;-61
2023/06/18 01:20:12;;;;;;;16.57;14.67;;;16.00;99.90;;;;;;5047994;28;20214;-61
2023/06/18 01:22:53;;;;;;;16.73;15.13;;;16.00;99.90;;;;;;5048880;28;20198;-61
2023/06/18 01:25:19;;;;;;;16.87;15.23;;;16.00;99.90;;;;;;5048590;28;20194;-61
2023/06/18 01:27:46;;;;;;;16.80;15.20;;;16.00;99.90;;;;;;5046147;28;20344;-60
2023/06/18 01:30:13;;;;;;;18.07;16.07;;;16.00;99.90;;;;;;5046984;28;20203;-61
2023/06/18 01:32:39;;;;;;;16.10;14.60;;;15.90;99.90;;;;;;5047268;28;20206;-60
2023/06/18 01:35:06;;;;;;;20.00;17.60;;;15.90;99.90;;;;;;5047596;28;20244;-60
2023/06/18 01:38:11;;;;;;;20.80;17.60;;;15.90;99.90;;;;;;5046308;28;20281;-61
2023/06/18 01:40:54;;;;;;;19.23;17.33;;;15.90;99.90;;;;;;5047684;28;20566;-60
2023/06/18 01:43:33;;;;;;;19.53;17.63;;;15.80;99.90;;;;;;5044194;28;20206;-61
2023/06/18 01:46:08;;;;;;;24.03;17.13;;;15.90;99.90;;;;;;5049321;28;20306;-61
2023/06/18 01:48:46;;;;;;;18.93;16.30;;;15.80;99.90;;;;;;5047934;28;20244;-60
2023/06/18 01:51:15;;;;;;;18.47;16.67;;;15.70;99.90;;;;;;5044821;28;20209;-61
2023/06/18 01:53:41;;;;;;;19.40;17.60;;;15.70;99.90;;;;;;5051604;28;20289;-61
2023/06/18 01:56:09;;;;;;;18.60;16.80;;;15.70;99.90;;;;;;5043833;28;20207;-61
2023/06/18 01:58:36;;;;;;;18.13;16.33;;;15.70;99.90;;;;;;5047951;28;20221;-60
2023/06/18 02:01:04;;;;;;;19.43;17.53;;;15.60;99.90;;;;;;5047335;28;21038;-61
2023/06/18 02:03:30;;;;;;;18.70;17.00;;;15.60;99.90;;;;;;5047933;28;20229;-61
2023/06/18 02:05:56;;;;;;;17.33;15.73;;;15.60;99.90;;;;;;5047253;28;20615;-61
2023/06/18 02:08:21;;;;;;;16.37;14.93;;;15.60;99.90;;;;;;5046614;28;20209;-60
2023/06/18 02:10:47;;;;;;;18.70;15.33;;;15.50;99.90;;;;;;5047084;28;20193;-60
2023/06/18 02:13:13;;;;;;;15.20;13.87;;;15.40;99.90;;;;;;5047105;28;20207;-60
2023/06/18 02:15:40;;;;;;;16.93;15.23;;;15.40;99.90;;;;;;5046834;28;20202;-60
2023/06/18 02:18:06;;;;;;;17.20;15.37;;;15.30;99.90;;;;;;5047063;28;20255;-60
2023/06/18 02:20:32;;;;;;;16.50;14.93;;;15.30;99.90;;;;;;5046144;28;20233;-61
2023/06/18 02:22:58;;;;;;;18.00;16.20;;;15.20;99.90;;;;;;5042840;28;20737;-60
2023/06/18 02:25:29;;;;;;;17.63;15.80;;;15.30;99.90;;;;;;5047702;28;20202;-60
2023/06/18 02:28:02;;;;;;;17.53;15.70;;;15.30;99.90;;;;;;5047166;28;20210;-61
2023/06/18 02:30:29;;;;;;;15.77;14.20;;;15.30;99.90;;;;;;5047865;28;20531;-61
2023/06/18 02:32:55;;;;;;;15.87;14.30;;;15.30;99.90;;;;;;5058664;28;20242;-61
2023/06/18 02:35:21;;;;;;;16.27;14.80;;;15.30;99.90;;;;;;5055393;28;20301;-64
2023/06/18 02:37:46;;;;;;;17.63;15.90;;;15.30;99.90;;;;;;5055260;28;20611;-61
2023/06/18 02:40:14;;;;;;;16.83;15.10;;;15.20;99.90;;;;;;5054753;28;20230;-61
2023/06/18 02:42:46;;;;;;;17.23;14.97;;;15.20;99.90;;;;;;5057235;28;20206;-62
2023/06/18 02:45:14;;;;;;;18.53;16.50;;;15.10;99.90;;;;;;5056869;28;20194;-61
2023/06/18 02:47:39;;;;;;;16.23;14.50;;;15.10;99.90;;;;;;5056762;28;20193;-61
2023/06/18 02:50:07;;;;;;;16.73;15.03;;;15.00;99.90;;;;;;5054815;28;20726;-62
2023/06/18 02:52:32;;;;;;;16.37;14.83;;;15.10;99.90;;;;;;5057080;28;20569;-61
2023/06/18 02:54:58;;;;;;;16.87;15.27;;;15.20;99.90;;;;;;5057072;28;20194;-60
2023/06/18 02:57:23;;;;;;;17.53;15.83;;;15.20;99.90;;;;;;5057067;28;20190;-60
2023/06/18 02:59:49;;;;;;;16.67;15.17;;;15.20;99.90;;;;;;5042690;28;20226;-60
2023/06/18 03:02:15;;;;;;;15.70;14.23;;;15.10;99.90;;;;;;5054573;28;20193;-61
2023/06/18 03:04:40;;;;;;;16.23;14.60;;;15.00;99.90;;;;;;5047454;28;20552;-61
2023/06/18 03:07:05;;;;;;;17.00;15.43;;;15.10;99.90;;;;;;5046905;28;20191;-61
2023/06/18 03:09:31;;;;;;;17.23;15.60;;;15.10;99.90;;;;;;5048937;28;20198;-62
2023/06/18 03:11:57;;;;;;;16.80;15.13;;;15.10;99.90;;;;;;5047328;28;20209;-61
2023/06/18 03:14:23;;;;;;;15.93;14.37;;;15.00;99.90;;;;;;5045319;28;20782;-62
2023/06/18 03:16:49;;;;;;;18.33;16.53;;;15.00;99.90;;;;;;5048359;28;20202;-62
2023/06/18 03:19:14;;;;;;;16.13;14.60;;;15.00;99.90;;;;;;5058757;28;20620;-62
2023/06/18 03:21:40;;;;;;;16.73;15.20;;;15.00;99.90;;;;;;5049609;28;20671;-62
2023/06/18 03:24:06;;;;;;;17.40;15.80;;;15.10;99.90;;;;;;5050018;28;20323;-62
2023/06/18 03:26:35;;;;;;;16.37;14.77;;;15.00;99.90;;;;;;5050152;28;20191;-62
2023/06/18 03:29:04;;;;;;;18.20;16.50;;;15.00;99.90;;;;;;5050441;28;20202;-61
2023/06/18 03:31:31;;;;;;;16.80;15.20;;;14.90;99.90;;;;;;5051152;28;20202;-61
2023/06/18 03:34:01;;;;;;;16.43;15.03;;;14.90;99.90;;;;;;5051227;28;20497;-62
2023/06/18 03:36:28;;;;;;;17.33;15.53;;;14.90;99.90;;;;;;5049858;28;20304;-62
2023/06/18 03:38:55;;;;;;;17.80;16.10;;;14.90;99.90;;;;;;5051507;28;20555;-61
2023/06/18 03:41:21;;;;;;;17.63;16.03;;;15.00;99.90;;;;;;5048255;28;20214;-62
2023/06/18 03:43:46;;;;;;;17.67;15.93;;;15.00;99.90;;;;;;5049731;28;20202;-61
2023/06/18 03:46:12;;;;;;;18.33;16.53;;;15.00;99.90;;;;;;5050052;28;20195;-62
2023/06/18 03:48:38;;;;;;;19.17;17.37;;;15.10;99.90;;;;;;5048249;28;20236;-62
2023/06/18 03:51:04;;;;;;;17.60;15.93;;;15.10;99.90;;;;;;5050100;28;20206;-62
2023/06/18 03:53:30;;;;;;;18.20;16.40;;;15.20;99.90;;;;;;5050296;28;20203;-62
2023/06/18 03:55:55;;;;;;;18.97;17.17;;;15.20;99.90;;;;;;5050377;28;20793;-61
2023/06/18 03:58:21;;;;;;;18.20;16.47;;;15.20;99.90;;;;;;5050240;28;20202;-61
2023/06/18 04:00:47;;;;;;;18.40;16.57;;;15.30;99.90;;;;;;5048530;28;20220;-61
2023/06/18 04:03:12;;;;;;;18.87;17.07;;;15.30;99.90;;;;;;5049506;28;20214;-61
2023/06/18 04:05:38;;;;;;;18.83;17.13;;;15.30;99.90;;;;;;5049492;28;20241;-61
2023/06/18 04:08:04;;;;;;;18.70;16.83;;;15.30;99.90;;;;;;5049604;28;20206;-61
2023/06/18 04:10:30;;;;;;;19.43;17.57;;;15.30;99.90;;;;;;5049348;28;20358;-61
2023/06/18 04:12:55;;;;;;;20.10;18.20;;;15.30;99.90;;;;;;5049304;28;20203;-61
2023/06/18 04:15:21;;;;;;;20.03;18.07;;;15.30;99.90;;;;;;5048042;28;20297;-61
2023/06/18 04:17:46;;;;;;;20.73;18.63;;;15.30;99.90;;;;;;5053327;28;20285;-61
2023/06/18 04:20:12;;;;;;;21.33;19.30;;;15.40;99.90;;;;;;5045993;28;20218;-60
2023/06/18 04:22:37;;;;;;;21.47;19.23;;;15.40;99.90;;;;;;5050589;28;20202;-61
2023/06/18 04:25:03;;;;;;;19.07;17.23;;;15.50;99.90;;;;;;5050463;28;20722;-62
2023/06/18 04:27:29;;;;;;;19.80;17.90;;;15.50;99.90;;;;;;5046481;28;20291;-62
2023/06/18 04:29:54;;;;;;;18.67;17.03;;;15.50;99.90;;;;;;5048732;28;20233;-61
2023/06/18 04:32:19;;;;;;;20.13;18.23;;;15.60;99.90;;;;;;5049033;28;20213;-62
2023/06/18 04:34:45;;;;;;;21.67;19.40;;;15.60;99.90;;;;;;5048571;28;20212;-61
2023/06/18 04:37:11;;;;;;;20.07;18.17;;;15.70;99.90;;;;;;5048996;28;20725;-62
2023/06/18 04:39:36;;;;;;;21.07;19.00;;;15.70;99.90;;;;;;5046700;28;20226;-62
2023/06/18 04:42:02;;;;;;;22.13;20.00;;;15.70;99.90;;;;;;5044459;28;20211;-61
2023/06/18 04:44:28;;;;;;;19.93;18.10;;;15.80;99.90;;;;;;5049311;28;20183;-61
2023/06/18 04:46:54;;;;;;;21.53;19.43;;;15.90;99.90;;;;;;5049421;28;21070;-61
2023/06/18 04:49:19;;;;;;;19.87;17.87;;;15.90;99.90;;;;;;5049905;28;20708;-62
2023/06/18 04:51:45;;;;;;;20.70;18.83;;;16.00;99.90;;;;;;5049433;28;20256;-62
2023/06/18 04:54:11;;;;;;;22.03;19.93;;;16.00;99.90;;;;;;5048895;28;20272;-62
2023/06/18 04:56:36;;;;;;;22.73;20.73;;;16.10;99.90;;;;;;5048758;28;20611;-60
2023/06/18 04:59:02;;;;;;;21.43;19.33;;;16.10;99.90;;;;;;5048596;28;20202;-62
2023/06/18 05:01:28;;;;;;;22.57;20.47;;;16.20;99.90;;;;;;5048332;28;20198;-62
2023/06/18 05:03:53;;;;;;;21.80;19.90;;;16.20;99.90;;;;;;5048513;28;20191;-60
2023/06/18 05:06:19;;;;;;;22.40;20.33;;;16.20;99.90;;;;;;5051561;28;20194;-61
2023/06/18 05:08:46;;;;;;;22.43;20.20;;;16.20;99.90;;;;;;5043051;28;20661;-61
2023/06/18 05:11:12;;;;;;;21.50;19.53;;;16.30;99.90;;;;;;5048942;28;20214;-63
2023/06/18 05:13:37;;;;;;;22.13;20.03;;;16.30;99.90;;;;;;5048985;28;20210;-63
2023/06/18 05:16:03;;;;;;;22.27;20.33;;;16.30;99.90;;;;;;5049276;28;20234;-62
2023/06/18 05:18:29;;;;;;;22.03;19.97;;;16.40;99.90;;;;;;5046520;28;20202;-63
2023/06/18 05:20:54;;;;;;;22.37;20.30;;;16.40;99.90;;;;;;5047484;28;20217;-63
2023/06/18 05:23:19;;;;;;;21.17;19.23;;;16.50;99.90;;;;;;5048059;28;20617;-64
2023/06/18 05:25:45;;;;;;;21.67;19.43;;;16.60;99.90;;;;;;5047880;28;20203;-64
2023/06/18 05:28:11;;;;;;;19.93;18.03;;;16.70;99.90;;;;;;5047905;28;20218;-63
2023/06/18 05:30:36;;;;;;;20.23;18.00;;;16.80;99.90;;;;;;5046440;28;20195;-64
2023/06/18 05:33:02;;;;;;;17.13;15.63;;;16.90;99.90;;;;;;5048329;28;20257;-64
2023/06/18 05:35:27;;;;;;;15.50;14.07;;;17.10;99.90;;;;;;5048489;28;20233;-63
2023/06/18 05:37:53;;;;;;;16.27;14.67;;;17.20;99.90;;;;;;5047890;28;20708;-64
2023/06/18 05:40:18;;;;;;;16.20;14.60;;;17.40;99.90;;;;;;5047229;28;20213;-64
2023/06/18 05:42:44;;;;;;;16.40;14.87;;;17.40;99.90;;;;;;5046098;28;20190;-64
2023/06/18 05:45:10;;;;;;;15.57;14.07;;;17.50;99.90;;;;;;5046880;28;20191;-63
2023/06/18 05:47:35;;;;;;;13.30;12.07;;;17.50;99.90;;;;;;5047608;28;21612;-64
2023/06/18 05:50:01;;;;;;;11.60;10.50;;;17.60;99.90;;;;;;5047255;28;20199;-63
2023/06/18 05:52:26;;;;;;;10.47;9.40;;;17.80;99.90;;;;;;5046688;28;20565;-64
2023/06/18 05:54:52;;;;;;;10.63;9.40;;;18.10;99.90;;;;;;5047437;28;20245;-64
2023/06/18 05:57:17;;;;;;;10.63;9.63;;;18.30;99.90;;;;;;5047961;28;20203;-63
2023/06/18 05:59:43;;;;;;;9.77;8.87;;;18.30;99.90;;;;;;5048385;28;20658;-64
2023/06/18 06:02:08;;;;;;;9.30;8.50;;;18.30;99.90;;;;;;5047699;28;20252;-64
2023/06/18 06:04:34;;;;;;;9.73;8.83;;;18.30;99.90;;;;;;5047897;28;20198;-64
2023/06/18 06:06:59;;;;;;;9.80;8.80;;;18.30;99.90;;;;;;5045445;28;20217;-64
2023/06/18 06:09:25;;;;;;;8.77;7.97;;;18.20;99.90;;;;;;5048352;28;20194;-64
2023/06/18 06:11:52;;;;;;;8.73;8.10;;;18.20;99.90;;;;;;5057060;28;20313;-64
2023/06/18 06:14:17;;;;;;;8.50;7.77;;;18.30;99.90;;;;;;5057519;28;20198;-63
2023/06/18 06:16:43;;;;;;;7.97;7.30;;;18.60;99.90;;;;;;5057193;28;20214;-63
2023/06/18 06:19:08;;;;;;;6.93;6.40;;;18.70;99.90;;;;;;5054226;28;20206;-63
2023/06/18 06:21:34;;;;;;;7.83;7.10;;;18.80;99.90;;;;;;5057178;28;20282;-63
2023/06/18 06:24:00;;;;;;;7.73;7.10;;;18.90;99.90;;;;;;5056888;28;20194;-63
2023/06/18 06:26:25;;;;;;;7.47;6.87;;;18.90;99.90;;;;;;5057422;28;20578;-63
2023/06/18 06:28:51;;;;;;;9.67;8.63;;;18.80;99.90;;;;;;5055599;28;20199;-64
2023/06/18 06:31:16;;;;;;;9.17;7.80;;;19.10;99.90;;;;;;5046451;28;20285;-64
2023/06/18 06:33:42;;;;;;;7.73;7.10;;;19.10;99.90;;;;;;5046871;28;20198;-64
2023/06/18 06:36:09;;;;;;;7.50;6.90;;;19.00;99.90;;;;;;5046872;28;20206;-62
2023/06/18 06:38:35;;;;;;;8.10;7.30;;;19.00;99.90;;;;;;5051197;28;20701;-63
2023/06/18 06:41:00;;;;;;;9.97;8.80;;;19.00;99.90;;;;;;5040766;28;20248;-63
2023/06/18 06:43:26;;;;;;;8.43;7.50;;;18.90;99.90;;;;;;5047471;28;20199;-63
2023/06/18 06:45:51;;;;;;;9.60;8.47;;;18.90;99.90;;;;;;5047783;28;20201;-63
2023/06/18 06:48:17;;;;;;;9.00;8.13;;;18.90;99.90;;;;;;5048899;28;20250;-63
2023/06/18 06:50:42;;;;;;;9.93;9.13;;;18.90;99.90;;;;;;5045874;28;20249;-64
2023/06/18 06:53:08;;;;;;;8.67;7.97;;;18.90;99.90;;;;;;5044891;28;20206;-64
2023/06/18 06:55:33;;;;;;;8.00;7.07;;;19.00;99.90;;;;;;5046657;28;20198;-64
2023/06/18 06:57:59;;;;;;;9.23;8.47;;;19.10;99.90;;;;;;5048969;28;20207;-63
2023/06/18 07:00:25;;;;;;;9.70;8.77;;;19.50;99.90;;;;;;5044516;28;20234;-63
2023/06/18 07:02:50;;;;;;;9.20;8.40;;;19.70;99.90;;;;;;5049954;28;20285;-63
2023/06/18 07:05:16;;;;;;;10.17;9.27;;;19.60;99.90;;;;;;5048528;28;20528;-63
2023/06/18 07:07:42;;;;;;;9.27;8.40;;;19.60;99.90;;;;;;5041530;28;20204;-64
2023/06/18 07:10:08;;;;;;;10.10;9.17;;;19.50;99.90;;;;;;5046964;28;20534;-64
2023/06/18 07:12:33;;;;;;;9.13;8.23;;;19.50;99.90;;;;;;5046550;28;20201;-62
2023/06/18 07:14:59;;;;;;;10.40;9.40;;;19.40;99.90;;;;;;5047213;28;20235;-62
2023/06/18 07:17:24;;;;;;;9.40;8.53;;;19.40;99.90;;;;;;5046850;28;20195;-62
2023/06/18 07:19:52;;;;;;;9.70;8.87;;;19.40;99.90;;;;;;5046855;28;21171;-66
2023/06/18 07:22:18;;;;;;;10.00;9.20;;;19.60;99.90;;;;;;5046228;28;20205;-63
2023/06/18 07:24:43;;;;;;;9.93;8.60;;;19.60;99.90;;;;;;5045603;28;20575;-62
2023/06/18 07:27:09;;;;;;;8.87;8.17;;;19.60;99.90;;;;;;5049219;28;20210;-63
2023/06/18 07:29:35;;;;;;;8.73;7.83;;;19.80;99.90;;;;;;5046649;28;20304;-62
2023/06/18 07:32:00;;;;;;;8.60;7.87;;;19.90;99.90;;;;;;5044591;28;20201;-65
2023/06/18 07:34:25;;;;;;;8.83;8.00;;;20.10;99.90;;;;;;5042557;28;20291;-63
2023/06/18 07:36:51;;;;;;;9.20;8.40;;;20.20;99.90;;;;;;5046260;28;20199;-62
2023/06/18 07:39:16;;;;;;;8.43;7.73;;;20.50;99.90;;;;;;5046704;28;20238;-63
2023/06/18 07:41:47;;;;;;;9.60;8.70;;;20.30;99.90;;;;;;5049530;28;20187;-62
2023/06/18 07:44:13;;;;;;;9.30;8.40;;;20.30;99.90;;;;;;5053741;28;20283;-79
2023/06/18 07:46:38;;;;;;;8.27;7.63;;;20.30;99.90;;;;;;5054034;28;20286;-76
2023/06/18 07:49:04;;;;;;;8.80;8.10;;;20.30;99.90;;;;;;5056214;28;20292;-72
2023/06/18 07:51:29;;;;;;;9.73;8.97;;;20.30;99.90;;;;;;5056176;28;20337;-73
2023/06/18 07:53:55;;;;;;;8.47;7.77;;;20.40;99.90;;;;;;5056388;28;20725;-74
2023/06/18 07:56:24;;;;;;;9.30;8.40;;;20.50;99.90;;;;;;5053853;28;20279;-74
2023/06/18 07:58:49;;;;;;;8.97;8.17;;;20.60;99.90;;;;;;5054596;28;20195;-73
2023/06/18 08:01:15;;;;;;;8.70;8.00;;;20.70;99.90;;;;;;5056510;28;20578;-71
2023/06/18 08:03:40;;;;;;;8.77;7.87;;;20.90;99.90;;;;;;5056748;28;20273;-72
2023/06/18 08:06:06;;;;;;;8.60;7.73;;;20.70;99.90;;;;;;5059737;28;20187;-72
2023/06/18 08:08:31;;;;;;;7.80;7.10;;;20.60;99.90;;;;;;5058269;28;20192;-73
2023/06/18 08:10:57;;;;;;;8.07;7.37;;;20.70;99.90;;;;;;5066728;28;20207;-73
2023/06/18 08:13:22;;;;;;;7.10;6.50;;;20.80;99.90;;;;;;5058149;28;20235;-76
2023/06/18 08:15:48;;;;;;;7.83;7.13;;;21.00;99.90;;;;;;5059369;28;20401;-75
2023/06/18 08:18:13;;;;;;;6.90;6.23;;;21.00;99.90;;;;;;5054764;28;20204;-76
2023/06/18 08:20:39;;;;;;;5.33;4.93;;;21.00;99.90;;;;;;5059133;28;20234;-72
2023/06/18 08:23:04;;;;;;;5.70;5.20;;;20.90;99.90;;;;;;5057425;28;20224;-74
2023/06/18 08:25:30;;;;;;;6.17;5.57;;;20.90;99.90;;;;;;5061945;28;20205;-74
2023/06/18 08:27:56;;;;;;;6.00;5.50;;;20.90;99.90;;;;;;5058309;28;20204;-73
2023/06/18 08:30:22;;;;;;;6.17;5.57;;;21.00;99.90;;;;;;5056467;28;20968;-73
2023/06/18 08:32:47;;;;;;;7.10;6.50;;;21.10;99.90;;;;;;5058906;28;20228;-72
2023/06/18 08:35:13;;;;;;;6.57;5.97;;;21.20;99.90;;;;;;5056736;28;20862;-72
2023/06/18 08:37:38;;;;;;;6.43;5.87;;;21.40;99.90;;;;;;5063315;28;20197;-75
2023/06/18 08:40:04;;;;;;;8.37;6.23;;;21.50;99.90;;;;;;5064928;28;20243;-74
2023/06/18 08:42:30;;;;;;;6.87;6.20;;;21.60;99.90;;;;;;5062810;28;20602;-75
2023/06/18 08:44:56;;;;;;;6.17;5.57;;;21.80;99.90;;;;;;5071270;28;20215;-74
2023/06/18 08:47:22;;;;;;;7.20;6.50;;;21.80;99.90;;;;;;5066175;28;20199;-77
2023/06/18 08:49:50;;;;;;;7.27;6.67;;;22.00;99.90;;;;;;5068671;28;20196;-82
2023/06/18 08:52:18;;;;;;;7.70;7.00;;;22.10;99.90;;;;;;5068139;28;21242;-74
2023/06/18 08:54:46;;;;;;;6.60;5.93;;;22.10;99.90;;;;;;5066515;28;20239;-74
2023/06/18 08:57:25;;;;;;;7.30;5.83;;;22.00;99.90;;;;;;5064484;28;20676;-71
2023/06/18 08:59:51;;;;;;;6.13;5.57;;;22.00;99.90;;;;;;5061827;28;20747;-74
2023/06/18 09:02:20;;;;;;;6.50;5.90;;;22.10;99.90;;;;;;5066262;28;20198;-71
2023/06/18 09:04:46;;;;;;;6.20;5.70;;;22.30;99.90;;;;;;5052219;28;20209;-75
2023/06/18 09:07:12;;;;;;;6.50;5.87;;;22.40;99.90;;;;;;5057400;28;20694;-72
2023/06/18 09:09:37;;;;;;;6.07;5.57;;;22.60;99.90;;;;;;5067056;28;20283;-72
2023/06/18 09:12:03;;;;;;;5.40;5.00;;;22.80;99.90;;;;;;5056947;28;20198;-73
2023/06/18 09:14:29;;;;;;;8.17;5.83;;;22.80;99.90;;;;;;5055817;28;20209;-72
2023/06/18 09:16:56;;;;;;;6.07;5.50;;;22.80;99.90;;;;;;5058206;28;20194;-73
2023/06/18 09:19:23;;;;;;;7.77;5.70;;;22.70;99.90;;;;;;5059379;28;20198;-72
2023/06/18 09:21:49;;;;;;;6.80;6.07;;;22.60;99.90;;;;;;5058827;28;20198;-71
2023/06/18 09:24:17;;;;;;;7.03;6.43;;;22.60;99.90;;;;;;5049097;28;20221;-72
2023/06/18 09:26:43;;;;;;;6.90;5.70;;;22.60;99.90;;;;;;5050860;28;20224;-71
2023/06/18 09:29:11;;;;;;;6.33;5.60;;;22.70;99.90;;;;;;5057553;28;20247;-74
2023/06/18 09:31:41;;;;;;;6.03;5.53;;;22.70;99.90;;;;;;5057805;28;20221;-73
2023/06/18 09:34:14;;;;;;;8.53;5.73;;;22.80;99.90;;;;;;5058741;28;20221;-73
2023/06/18 09:36:41;;;;;;;6.27;5.77;;;22.90;99.90;;;;;;5048709;28;20675;-72
2023/06/18 09:39:19;;;;;;;7.77;6.13;;;22.80;99.80;;;;;;5058891;28;20240;-73
2023/06/18 09:41:46;;;;;;;7.33;6.63;;;22.80;99.90;;;;;;5054086;28;20189;-74
2023/06/18 09:44:16;;;;;;;6.23;5.83;;;22.70;99.90;;;;;;5045276;28;20195;-72
2023/06/18 09:46:43;;;;;;;11.07;6.50;;;22.80;99.90;;;;;;5045358;28;20650;-72
2023/06/18 09:49:10;;;;;;;7.30;6.00;;;22.90;99.40;;;;;;5045098;28;20506;-73
2023/06/18 09:51:42;;;;;;;6.30;5.70;;;22.90;99.90;;;;;;5045606;28;20195;-72
2023/06/18 09:54:08;;;;;;;6.57;5.97;;;22.90;99.10;;;;;;5043998;28;20194;-72
2023/06/18 09:56:34;;;;;;;6.30;5.80;;;23.20;97.50;;;;;;5045026;28;20201;-70
2023/06/18 09:59:03;;;;;;;6.43;5.93;;;23.30;99.40;;;;;;5044600;28;20202;-71
2023/06/18 10:01:50;;;;;;;5.20;4.80;;;23.30;99.90;;;;;;5044587;28;20322;-72
2023/06/18 10:04:16;;;;;;;7.00;6.30;;;23.30;99.90;;;;;;5042972;28;20214;-70
2023/06/18 10:07:02;;;;;;;6.70;5.50;;;23.30;99.90;;;;;;5052805;28;20681;-73
2023/06/18 10:09:36;;;;;;;5.67;5.17;;;23.20;99.60;;;;;;5043324;28;20224;-73
2023/06/18 10:12:04;;;;;;;5.10;4.70;;;23.20;99.20;;;;;;5044989;28;20669;-70
2023/06/18 10:14:30;;;;;;;5.67;5.17;;;23.10;98.80;;;;;;5045264;28;20221;-70
2023/06/18 10:17:05;;;;;;;4.83;4.43;;;23.10;98.10;;;;;;5045247;28;20289;-71
2023/06/18 10:19:46;;;;;;;5.97;5.47;;;23.20;97.00;;;;;;5043340;28;20296;-71
2023/06/18 10:22:14;;;;;;;5.77;5.37;;;23.30;97.50;;;;;;5047152;28;20202;-73
2023/06/18 10:24:46;;;;;;;5.37;4.97;;;23.40;97.70;;;;;;5044870;28;20266;-72
2023/06/18 10:27:12;;;;;;;5.47;4.97;;;23.50;97.80;;;;;;5050427;28;20454;-72
2023/06/18 10:29:38;;;;;;;5.90;5.30;;;23.60;98.30;;;;;;5045211;28;20205;-72
2023/06/18 10:32:04;;;;;;;5.53;5.07;;;23.60;99.00;;;;;;5047995;28;20206;-71
2023/06/18 10:34:32;;;;;;;6.00;5.50;;;23.70;99.20;;;;;;5045843;28;20281;-74
2023/06/18 10:36:59;;;;;;;5.60;5.17;;;23.70;97.30;;;;;;5044131;28;20202;-73
2023/06/18 10:39:26;;;;;;;4.63;4.23;;;23.70;97.90;;;;;;5046324;28;20272;-73
2023/06/18 10:41:52;;;;;;;6.00;4.70;;;23.70;98.00;;;;;;5045014;28;20201;-73
2023/06/18 10:44:32;;;;;;;4.53;4.23;;;23.70;97.90;;;;;;5044438;28;20285;-72
2023/06/18 10:47:20;;;;;;;6.40;4.67;;;23.80;96.30;;;;;;5044941;28;20699;-72
2023/06/18 10:50:07;;;;;;;5.00;4.60;;;23.90;94.00;;;;;;5042762;28;20209;-72
2023/06/18 10:52:40;;;;;;;4.70;4.30;;;23.90;95.00;;;;;;5047012;28;20211;-72
2023/06/18 10:55:18;;;;;;;4.87;4.40;;;23.90;94.70;;;;;;5043810;28;20211;-71
2023/06/18 10:57:45;;;;;;;5.00;4.53;;;24.00;95.30;;;;;;5045064;28;20225;-72
2023/06/18 11:00:37;;;;;;;5.63;5.17;;;24.20;93.30;;;;;;5044842;28;20257;-72
2023/06/18 11:03:15;;;;;;;4.47;4.17;;;24.50;94.70;;;;;;5040153;28;20218;-71
2023/06/18 11:05:42;;;;;;;20.03;13.33;;;24.70;89.70;;;;;;5045806;28;20210;-72
2023/06/18 11:08:09;;;;;;;6.77;5.20;;;24.50;93.40;;;;;;5055323;28;20222;-71
2023/06/18 11:10:41;;;;;;;6.73;5.00;;;24.50;92.40;;;;;;5057418;28;20550;-71
2023/06/18 11:13:10;;;;;;;5.65;3.90;;;24.70;91.30;;;;;;5054824;28;20733;-71
2023/06/18 11:15:53;;;;;;;4.70;4.30;;;25.10;88.10;;;;;;5056385;28;20241;-74
2023/06/18 11:18:25;;;;;;;4.70;4.40;;;25.20;88.20;;;;;;5052740;28;20255;-74
2023/06/18 11:20:52;;;;;;;4.65;4.35;;;25.40;89.50;;;;;;5045369;28;20212;-73
2023/06/18 11:23:18;;;;;;;4.63;4.32;;;25.30;89.60;;;;;;5047070;28;20301;-70
2023/06/18 11:25:45;;;;;;;4.00;3.80;;;25.60;88.50;;;;;;5044148;28;20922;-73
2023/06/18 11:28:13;;;;;;;5.22;4.32;;;25.80;91.00;;;;;;5054008;28;20210;-74
2023/06/18 11:30:39;;;;;;;5.18;4.70;;;25.80;92.20;;;;;;5056060;28;20206;-73
2023/06/18 11:33:05;;;;;;;7.28;5.00;;;25.90;90.80;;;;;;5055157;28;20203;-78
2023/06/18 11:35:30;;;;;;;5.90;5.43;;;25.90;91.00;;;;;;5055785;28;20195;-72
2023/06/18 11:37:56;;;;;;;5.03;4.70;;;25.90;99.90;;;;;;5055304;28;20939;-71
2023/06/18 11:40:22;;;;;;;5.22;4.72;;;25.60;99.80;;;;;;5058944;28;20689;-71
2023/06/18 11:42:50;;;;;;;5.07;4.70;;;25.30;97.90;;;;;;5058580;28;20202;-70
2023/06/18 11:45:16;;;;;;;4.70;4.40;;;25.40;93.80;;;;;;5058474;28;21054;-70
2023/06/18 11:47:50;;;;;;;5.53;5.13;;;25.80;90.40;;;;;;5057678;28;20297;-71
2023/06/18 11:50:20;;;;;;;4.68;4.38;;;25.60;90.90;;;;;;5059068;28;20247;-72
2023/06/18 11:52:46;;;;;;;5.28;4.88;;;25.40;92.20;;;;;;5059450;28;20198;-71
2023/06/18 11:55:12;;;;;;;4.53;4.22;;;25.50;91.40;;;;;;5058703;28;20209;-70
2023/06/18 11:57:37;;;;;;;4.50;4.20;;;25.50;90.30;;;;;;5051323;28;20238;-71
2023/06/18 12:00:10;;;;;;;5.68;5.18;;;25.50;90.60;;;;;;5047229;28;20219;-70
2023/06/18 12:02:40;;;;;;;4.80;4.43;;;25.50;90.10;;;;;;5047868;28;20222;-71
2023/06/18 12:05:06;;;;;;;4.68;4.28;;;25.70;86.00;;;;;;5047557;28;20281;-72
2023/06/18 12:07:32;;;;;;;5.03;4.63;;;25.60;88.10;;;;;;5046046;28;20611;-70
2023/06/18 12:10:06;;;;;;;8.55;7.68;;;25.30;89.30;;;;;;5048028;28;20206;-71
2023/06/18 12:12:55;;;;;;;7.03;6.40;;;25.10;90.70;;;;;;5047836;28;20240;-71
2023/06/18 12:15:23;;;;;;;5.60;5.15;;;25.40;83.00;;;;;;5047454;28;20197;-73
2023/06/18 12:18:18;;;;;;;5.10;4.60;;;25.80;80.00;;;;;;5047278;28;20599;-70
2023/06/18 12:20:44;;;;;;;11.25;10.32;;;26.20;81.10;;;;;;5047242;28;20214;-71
2023/06/18 12:23:11;;;;;;;6.25;5.40;;;26.60;77.00;;;;;;5046485;28;20203;-73
2023/06/18 12:25:37;;;;;;;6.13;5.53;;;26.90;74.20;;;;;;5048078;28;20214;-72
2023/06/18 12:28:04;;;;;;;5.10;4.70;;;26.60;77.70;;;;;;5048138;28;20224;-71
2023/06/18 12:30:31;;;;;;;5.80;5.40;;;26.50;75.70;;;;;;5046131;28;20193;-70
2023/06/18 12:33:08;;;;;;;4.80;4.40;;;26.70;73.60;;;;;;5047756;28;20205;-74
2023/06/18 12:35:35;;;;;;;6.25;5.70;;;26.70;75.10;;;;;;5048379;28;20347;-71
2023/06/18 12:38:06;;;;;;;8.43;7.82;;;26.50;75.20;;;;;;5049008;28;20213;-71
2023/06/18 12:40:33;;;;;;;11.60;10.70;;;26.60;79.60;;;;;;5045719;28;20257;-72